This is the latest recevied weather packets stored in our database for station/object KN6ZYR. If no packets are shown the sender has not sent any weather packets the latest 10 day(s).
| Time | Temp. | Humidity | Pressure | Rain* | Wind** | Luminosity | Snow |
|---|---|---|---|---|---|---|---|
| 1777333399 | 16.67° C | 28% | 1016.5 hPa | 0 mm | - | 381 W/m² | - |
| 1777333097 | 16.67° C | 28% | 1016.5 hPa | 0 mm | - | 387 W/m² | - |
| 1777332795 | 16.11° C | 28% | 1016.4 hPa | 0 mm | - | 397 W/m² | - |
| 1777332491 | 16.11° C | 28% | 1016.5 hPa | 0 mm | - | 412 W/m² | - |
| 1777332188 | 16.67° C | 28% | 1016.4 hPa | 0 mm | - | 434 W/m² | - |
| 1777331885 | 15.56° C | 27% | 1016.5 hPa | 0 mm | - | 471 W/m² | - |
| 1777331582 | 15.56° C | 28% | 1016.4 hPa | 0 mm | - | 530 W/m² | - |
| 1777331280 | 15° C | 29% | 1016.5 hPa | 0 mm | - | 295 W/m² | - |
| 1777330977 | 14.44° C | 29% | 1016.7 hPa | 0 mm | - | 182 W/m² | - |
| 1777330674 | 13.89° C | 31% | 1016.3 hPa | 0 mm | - | 160 W/m² | - |
| 1777330371 | 14.44° C | 33% | 1016.6 hPa | 0 mm | - | 137 W/m² | - |
| 1777330069 | 14.44° C | 33% | 1016.5 hPa | 0 mm | - | 136 W/m² | - |
| 1777329768 | 15° C | 33% | 1016.4 hPa | 0 mm | - | 153 W/m² | - |
| 1777329466 | 16.11° C | 32% | 1016.4 hPa | 0 mm | - | 285 W/m² | - |
| 1777329163 | 16.11° C | 31% | 1016.2 hPa | 0 mm | - | 479 W/m² | - |
| 1777328860 | 16.67° C | 27% | 1016.3 hPa | 0 mm | - | 609 W/m² | - |
| 1777328558 | 16.67° C | 26% | 1016.2 hPa | 0 mm | - | 638 W/m² | - |
| 1777328256 | 17.22° C | 24% | 1016 hPa | 0 mm | - | 639 W/m² | - |
| 1777327954 | 16.67° C | 25% | 1016.2 hPa | 0 mm | - | 644 W/m² | - |
| 1777327653 | 16.67° C | 27% | 1016.2 hPa | 0 mm | - | 689 W/m² | - |
| 1777327349 | 16.67° C | 25% | 1015.9 hPa | 0 mm | - | 724 W/m² | - |
| 1777327046 | 16.11° C | 29% | 1016.2 hPa | 0 mm | - | 303 W/m² | - |
| 1777326743 | 16.11° C | 26% | 1016.3 hPa | 0 mm | - | 439 W/m² | - |
| 1777326440 | 16.67° C | 26% | 1016.3 hPa | 0 mm | - | 452 W/m² | - |
| 1777326138 | 17.78° C | 26% | 1015.9 hPa | 0 mm | - | 720 W/m² | - |
* Rain latest hour (hover to see other rain measurements)
** Current wind speed in m/s (hover to see current wind gust speed)